Погода Ярашна неделю

Амман, Иордания

05 - 11 сентября
  • 05сентября
    Сегодня
    +17°
    +31°
    Ясно и безоблачно
    ВремяПогодаТемператураВлажностьДавлениеВетер, м/сВероятность осадков
    00:00Ясно и безоблачно+19°C85 %714 мм1.1 м/с0 %
    03:00Ясно и безоблачно+18°C75 %714 мм0.9 м/с0 %
    06:00Ясно и безоблачно+18°C74 %714 мм0.8 м/с0 %
    09:00Ясно и безоблачно+24°C49 %715 мм0.7 м/с0 %
    12:00Ясно и безоблачно+29°C30 %715 мм2.7 м/с0 %
    15:00Ясно и безоблачно+31°C28 %715 мм4.2 м/с0 %
    18:00Ясно и безоблачно+28°C43 %715 мм4.6 м/с0 %
    21:00Ясно и безоблачно+22°C69 %716 мм1.1 м/с0 %
  • 06сентября
    Воскресенье
    +17°
    +30°
    Ясно и безоблачно
    ВремяПогодаТемператураВлажностьДавлениеВетер, м/сВероятность осадков
    00:00Ясно и безоблачно+19°C91 %715 мм1.2 м/с0 %
    03:00Ясно и безоблачно+18°C82 %714 мм1.2 м/с0 %
    06:00Ясно и безоблачно+17°C90 %715 мм1.3 м/с0 %
    09:00Ясно и безоблачно+24°C52 %716 мм2.4 м/с0 %
    12:00Ясно и безоблачно+28°C37 %716 мм4.5 м/с0 %
    15:00Ясно и безоблачно+30°C30 %715 мм6.2 м/с0 %
    18:00Ясно и безоблачно+26°C50 %715 мм5.5 м/с0 %
    21:00Ясно и безоблачно+21°C77 %716 мм1.2 м/с0 %
  • 07сентября
    Понедельник
    +19°
    +33°
    Ясно и безоблачно
    ВремяПогодаТемператураВлажностьДавлениеВетер, м/сВероятность осадков
    00:00Ясно и безоблачно+19°C92 %715 мм1.1 м/с0 %
    03:00Ясно и безоблачно+18°C92 %714 мм0.9 м/с0 %
    06:00Ясно и безоблачно+18°C92 %714 мм0.7 м/с0 %
    09:00Ясно и безоблачно+25°C52 %716 мм0.8 м/с0 %
    12:00Ясно и безоблачно+30°C32 %715 мм1.6 м/с0 %
    15:00Ясно и безоблачно+32°C30 %714 мм4.0 м/с0 %
    18:00Ясно и безоблачно+29°C52 %714 мм3.5 м/с0 %
    21:00Ясно и безоблачно+24°C69 %714 мм1.1 м/с0 %
  • 08сентября
    Вторник
    +19°
    +33°
    Ясно и безоблачно
    ВремяПогодаТемператураВлажностьДавлениеВетер, м/сВероятность осадков
    00:00Ясно и безоблачно+22°C74 %714 мм0.8 м/с0 %
    03:00Ясно и безоблачно+21°C67 %713 мм0.9 м/с0 %
    06:00Ясно и безоблачно+20°C66 %713 мм0.4 м/с0 %
    09:00Ясно и безоблачно+27°C40 %715 мм1.2 м/с0 %
    12:00Ясно и безоблачно+31°C29 %714 мм2.2 м/с0 %
    15:00Ясно и безоблачно+33°C23 %713 мм3.9 м/с0 %
    18:00Ясно и безоблачно+30°C41 %713 мм4.0 м/с0 %
    21:00Ясно и безоблачно+24°C63 %713 мм1.1 м/с0 %
  • 09сентября
    Среда
    +19°
    +33°
    Ясно и безоблачно
    ВремяПогодаТемператураВлажностьДавлениеВетер, м/сВероятность осадков
    00:00Ясно и безоблачно+21°C74 %712 мм1.0 м/с0 %
    03:00Ясно и безоблачно+20°C54 %712 мм0.9 м/с0 %
    06:00Ясно и безоблачно+20°C50 %712 мм0.7 м/с0 %
    09:00Ясно и безоблачно+27°C31 %714 мм1.2 м/с0 %
    12:00Ясно и безоблачно+31°C22 %714 мм2.7 м/с0 %
    15:00Ясно и безоблачно+32°C21 %713 мм4.3 м/с0 %
    18:00Ясно и безоблачно+29°C34 %713 мм4.5 м/с0 %
    21:00Ясно и безоблачно+23°C61 %714 мм1.0 м/с0 %
  • 10сентября
    Четверг
    +17°
    +32°
    Ясно и безоблачно
    ВремяПогодаТемператураВлажностьДавлениеВетер, м/сВероятность осадков
    03:00Ясно и безоблачно+20°C43 %713 мм0.9 м/с0 %
    09:00Ясно и безоблачно+26°C28 %715 мм1.1 м/с0 %
    15:00Ясно и безоблачно+31°C23 %715 мм4.1 м/с0 %
    21:00Ясно и безоблачно+22°C69 %715 мм1.1 м/с0 %
  • 11сентября
    Пятница
    +18°
    +33°
    Ясно и безоблачно
    ВремяПогодаТемператураВлажностьДавлениеВетер, м/сВероятность осадков
    03:00Ясно и безоблачно+19°C58 %714 мм0.7 м/с0 %
    09:00Ясно и безоблачно+26°C42 %717 мм1.4 м/с0 %
    15:00Ясно и безоблачно+33°C20 %716 мм3.4 м/с0 %
    21:00Ясно и безоблачно+23°C59 %716 мм2.0 м/с0 %
Мы используем cookies
Соглашаюсь